sensor_id;sensor_type;location;lat;lon;timestamp;pressure;altitude;pressure_sealevel;temperature;humidity
73981;BME280;62348;51.412;5.436;2023-02-20T00:00:31;102468.66;;;4.59;94.92
73981;BME280;62348;51.412;5.436;2023-02-20T00:02:57;102468.88;;;4.57;94.54
73981;BME280;62348;51.412;5.436;2023-02-20T00:05:23;102469.69;;;4.58;94.86
73981;BME280;62348;51.412;5.436;2023-02-20T00:07:48;102454.63;;;4.57;94.73
73981;BME280;62348;51.412;5.436;2023-02-20T00:10:15;102459.63;;;4.60;94.63
73981;BME280;62348;51.412;5.436;2023-02-20T00:12:40;102469.31;;;4.61;94.38
73981;BME280;62348;51.412;5.436;2023-02-20T00:15:07;102476.34;;;4.62;94.24
73981;BME280;62348;51.412;5.436;2023-02-20T00:17:32;102467.09;;;4.64;94.42
73981;BME280;62348;51.412;5.436;2023-02-20T00:19:58;102469.63;;;4.66;94.52
73981;BME280;62348;51.412;5.436;2023-02-20T00:22:24;102472.13;;;4.67;94.63
73981;BME280;62348;51.412;5.436;2023-02-20T00:24:50;102474.63;;;4.69;94.63
73981;BME280;62348;51.412;5.436;2023-02-20T00:27:16;102464.56;;;4.71;94.30
73981;BME280;62348;51.412;5.436;2023-02-20T00:29:43;102450.31;;;4.71;94.00
73981;BME280;62348;51.412;5.436;2023-02-20T00:32:08;102457.34;;;4.72;93.79
73981;BME280;62348;51.412;5.436;2023-02-20T00:34:34;102459.19;;;4.71;94.30
73981;BME280;62348;51.412;5.436;2023-02-20T00:36:59;102440.44;;;4.71;94.31
73981;BME280;62348;51.412;5.436;2023-02-20T00:39:25;102441.25;;;4.72;94.14
73981;BME280;62348;51.412;5.436;2023-02-20T00:41:50;102437.94;;;4.69;93.89
73981;BME280;62348;51.412;5.436;2023-02-20T00:44:15;102435.06;;;4.71;94.26
73981;BME280;62348;51.412;5.436;2023-02-20T00:46:41;102423.25;;;4.65;94.41
73981;BME280;62348;51.412;5.436;2023-02-20T00:49:06;102423.06;;;4.67;94.42
73981;BME280;62348;51.412;5.436;2023-02-20T00:51:32;102414.16;;;4.66;94.52
73981;BME280;62348;51.412;5.436;2023-02-20T00:53:59;102414.16;;;4.66;94.41
73981;BME280;62348;51.412;5.436;2023-02-20T00:56:25;102414.16;;;4.66;94.64
73981;BME280;62348;51.412;5.436;2023-02-20T00:58:50;102415.03;;;4.67;94.75
73981;BME280;62348;51.412;5.436;2023-02-20T01:01:17;102405.94;;;4.68;94.77
73981;BME280;62348;51.412;5.436;2023-02-20T01:03:43;102393.38;;;4.68;94.77
73981;BME280;62348;51.412;5.436;2023-02-20T01:06:09;102392.19;;;4.71;95.06
73981;BME280;62348;51.412;5.436;2023-02-20T01:08:34;102382.31;;;4.72;94.94
73981;BME280;62348;51.412;5.436;2023-02-20T01:11:00;102377.78;;;4.72;94.97
73981;BME280;62348;51.412;5.436;2023-02-20T01:13:25;102375.94;;;4.73;94.92
73981;BME280;62348;51.412;5.436;2023-02-20T01:15:51;102376.59;;;4.75;95.32
73981;BME280;62348;51.412;5.436;2023-02-20T01:18:17;102382.94;;;4.74;95.22
73981;BME280;62348;51.412;5.436;2023-02-20T01:20:42;102381.09;;;4.74;95.62
73981;BME280;62348;51.412;5.436;2023-02-20T01:23:08;102386.66;;;4.73;95.35
73981;BME280;62348;51.412;5.436;2023-02-20T01:25:33;102385.63;;;4.74;95.23
73981;BME280;62348;51.412;5.436;2023-02-20T01:27:59;102397.00;;;4.76;95.36
73981;BME280;62348;51.412;5.436;2023-02-20T01:30:24;102393.50;;;4.75;95.31
73981;BME280;62348;51.412;5.436;2023-02-20T01:32:49;102393.66;;;4.74;95.28
73981;BME280;62348;51.412;5.436;2023-02-20T01:35:15;102401.88;;;4.72;94.76
73981;BME280;62348;51.412;5.436;2023-02-20T01:37:41;102402.34;;;4.76;95.19
73981;BME280;62348;51.412;5.436;2023-02-20T01:40:12;102400.88;;;4.73;94.93
73981;BME280;62348;51.412;5.436;2023-02-20T01:42:38;102397.56;;;4.71;94.93
73981;BME280;62348;51.412;5.436;2023-02-20T01:47:49;102398.75;;;4.68;95.13
73981;BME280;62348;51.412;5.436;2023-02-20T01:50:16;102377.50;;;4.67;95.23
73981;BME280;62348;51.412;5.436;2023-02-20T01:52:43;102387.38;;;4.66;95.00
73981;BME280;62348;51.412;5.436;2023-02-20T01:55:16;102382.22;;;4.65;95.07
73981;BME280;62348;51.412;5.436;2023-02-20T01:58:00;102377.69;;;4.65;95.31
73981;BME280;62348;51.412;5.436;2023-02-20T02:00:27;102378.69;;;4.64;95.20
73981;BME280;62348;51.412;5.436;2023-02-20T02:03:00;102369.38;;;4.60;95.35
73981;BME280;62348;51.412;5.436;2023-02-20T02:05:27;102375.53;;;4.61;95.21
73981;BME280;62348;51.412;5.436;2023-02-20T02:07:54;102363.34;;;4.58;95.27
73981;BME280;62348;51.412;5.436;2023-02-20T02:10:25;102356.16;;;4.59;95.84
73981;BME280;62348;51.412;5.436;2023-02-20T02:12:54;102339.59;;;4.55;95.60
73981;BME280;62348;51.412;5.436;2023-02-20T02:15:21;102342.09;;;4.57;95.53
73981;BME280;62348;51.412;5.436;2023-02-20T02:26:26;102308.03;;;4.50;95.94
73981;BME280;62348;51.412;5.436;2023-02-20T02:45:11;102303.22;;;4.46;97.38
73981;BME280;62348;51.412;5.436;2023-02-20T02:47:54;102302.03;;;4.48;97.42
73981;BME280;62348;51.412;5.436;2023-02-20T02:50:28;102283.09;;;4.50;97.49
73981;BME280;62348;51.412;5.436;2023-02-20T02:52:56;102294.44;;;4.52;97.75
73981;BME280;62348;51.412;5.436;2023-02-20T02:55:27;102295.91;;;4.55;98.31
73981;BME280;62348;51.412;5.436;2023-02-20T02:57:54;102293.06;;;4.56;98.21
73981;BME280;62348;51.412;5.436;2023-02-20T03:00:29;102291.84;;;4.59;98.29
73981;BME280;62348;51.412;5.436;2023-02-20T03:03:14;102279.75;;;4.63;98.45
73981;BME280;62348;51.412;5.436;2023-02-20T03:08:35;102258.59;;;4.68;98.88
73981;BME280;62348;51.412;5.436;2023-02-20T03:11:06;102252.88;;;4.71;98.70
73981;BME280;62348;51.412;5.436;2023-02-20T03:13:41;102256.81;;;4.75;98.81
73981;BME280;62348;51.412;5.436;2023-02-20T03:16:32;102253.16;;;4.76;98.88
73981;BME280;62348;51.412;5.436;2023-02-20T03:19:01;102251.94;;;4.79;98.70
73981;BME280;62348;51.412;5.436;2023-02-20T03:21:31;102263.28;;;4.81;99.04
73981;BME280;62348;51.412;5.436;2023-02-20T03:24:00;102255.06;;;4.82;99.04
73981;BME280;62348;51.412;5.436;2023-02-20T03:26:32;102260.88;;;4.86;98.99
73981;BME280;62348;51.412;5.436;2023-02-20T03:29:20;102259.03;;;4.86;99.20
73981;BME280;62348;51.412;5.436;2023-02-20T03:31:59;102251.44;;;4.90;99.23
73981;BME280;62348;51.412;5.436;2023-02-20T03:34:47;102250.22;;;4.93;99.13
73981;BME280;62348;51.412;5.436;2023-02-20T03:37:33;102257.06;;;4.95;99.14
73981;BME280;62348;51.412;5.436;2023-02-20T03:40:20;102250.50;;;4.98;99.17
73981;BME280;62348;51.412;5.436;2023-02-20T03:43:11;102255.03;;;4.97;99.33
73981;BME280;62348;51.412;5.436;2023-02-20T03:45:51;102259.00;;;5.01;99.29
73981;BME280;62348;51.412;5.436;2023-02-20T03:48:42;102261.28;;;5.04;99.06
73981;BME280;62348;51.412;5.436;2023-02-20T03:51:12;102257.78;;;5.04;98.87
73981;BME280;62348;51.412;5.436;2023-02-20T03:53:57;102265.00;;;5.03;99.13
73981;BME280;62348;51.412;5.436;2023-02-20T03:56:43;102257.41;;;5.07;99.01
73981;BME280;62348;51.412;5.436;2023-02-20T03:59:14;102258.22;;;5.07;99.39
73981;BME280;62348;51.412;5.436;2023-02-20T04:01:43;102255.38;;;5.09;99.03
73981;BME280;62348;51.412;5.436;2023-02-20T04:04:18;102249.19;;;5.08;98.98
73981;BME280;62348;51.412;5.436;2023-02-20T04:06:46;102247.31;;;5.09;98.60
73981;BME280;62348;51.412;5.436;2023-02-20T04:09:22;102257.00;;;5.10;98.71
73981;BME280;62348;51.412;5.436;2023-02-20T04:11:53;102245.47;;;5.09;98.56
73981;BME280;62348;51.412;5.436;2023-02-20T04:14:24;102247.78;;;5.13;98.45
73981;BME280;62348;51.412;5.436;2023-02-20T04:16:55;102253.50;;;5.09;98.18
73981;BME280;62348;51.412;5.436;2023-02-20T04:19:22;102255.19;;;5.11;98.52
73981;BME280;62348;51.412;5.436;2023-02-20T04:21:56;102258.69;;;5.11;98.35
73981;BME280;62348;51.412;5.436;2023-02-20T04:24:43;102262.19;;;5.12;98.24
73981;BME280;62348;51.412;5.436;2023-02-20T04:27:12;102264.69;;;5.13;97.99
73981;BME280;62348;51.412;5.436;2023-02-20T04:29:38;102265.50;;;5.14;98.00
73981;BME280;62348;51.412;5.436;2023-02-20T04:32:03;102260.16;;;5.14;97.95
73981;BME280;62348;51.412;5.436;2023-02-20T04:34:31;102258.31;;;5.14;98.47
73981;BME280;62348;51.412;5.436;2023-02-20T04:37:23;102254.41;;;5.17;98.06
73981;BME280;62348;51.412;5.436;2023-02-20T04:39:48;102263.47;;;5.16;98.23
73981;BME280;62348;51.412;5.436;2023-02-20T04:42:14;102262.28;;;5.18;98.54
73981;BME280;62348;51.412;5.436;2023-02-20T04:44:39;102260.22;;;5.20;98.24
73981;BME280;62348;51.412;5.436;2023-02-20T04:47:12;102262.72;;;5.22;98.43
73981;BME280;62348;51.412;5.436;2023-02-20T04:49:38;102265.19;;;5.23;98.45
73981;BME280;62348;51.412;5.436;2023-02-20T04:52:03;102267.69;;;5.25;98.36
73981;BME280;62348;51.412;5.436;2023-02-20T04:54:28;102261.31;;;5.26;98.29
73981;BME280;62348;51.412;5.436;2023-02-20T04:56:54;102268.16;;;5.28;98.43
73981;BME280;62348;51.412;5.436;2023-02-20T04:59:20;102267.13;;;5.30;98.31
73981;BME280;62348;51.412;5.436;2023-02-20T05:01:45;102268.59;;;5.32;98.16
73981;BME280;62348;51.412;5.436;2023-02-20T05:04:18;102261.38;;;5.33;98.09
73981;BME280;62348;51.412;5.436;2023-02-20T05:06:47;102269.88;;;5.36;98.37
73981;BME280;62348;51.412;5.436;2023-02-20T05:09:13;102270.69;;;5.37;98.04
73981;BME280;62348;51.412;5.436;2023-02-20T05:11:39;102279.59;;;5.37;98.24
73981;BME280;62348;51.412;5.436;2023-02-20T05:14:05;102266.00;;;5.39;98.01
73981;BME280;62348;51.412;5.436;2023-02-20T05:16:31;102267.47;;;5.41;97.95
73981;BME280;62348;51.412;5.436;2023-02-20T05:18:56;102272.00;;;5.41;98.07
73981;BME280;62348;51.412;5.436;2023-02-20T05:21:22;102272.63;;;5.43;97.70
73981;BME280;62348;51.412;5.436;2023-02-20T05:24:06;102270.59;;;5.45;97.75
73981;BME280;62348;51.412;5.436;2023-02-20T05:26:31;102260.69;;;5.45;97.86
73981;BME280;62348;51.412;5.436;2023-02-20T05:28:57;102272.06;;;5.47;97.69
73981;BME280;62348;51.412;5.436;2023-02-20T05:31:22;102264.00;;;5.47;97.90
73981;BME280;62348;51.412;5.436;2023-02-20T05:33:47;102265.47;;;5.50;97.46
73981;BME280;62348;51.412;5.436;2023-02-20T05:36:13;102267.97;;;5.52;98.00
73981;BME280;62348;51.412;5.436;2023-02-20T05:38:38;102269.63;;;5.53;97.67
73981;BME280;62348;51.412;5.436;2023-02-20T05:41:06;102268.41;;;5.55;97.54
73981;BME280;62348;51.412;5.436;2023-02-20T05:43:31;102262.84;;;5.57;97.50
73981;BME280;62348;51.412;5.436;2023-02-20T05:45:56;102267.22;;;5.58;97.64
73981;BME280;62348;51.412;5.436;2023-02-20T05:48:22;102277.72;;;5.59;97.42
73981;BME280;62348;51.412;5.436;2023-02-20T05:50:47;102269.50;;;5.61;97.52
73981;BME280;62348;51.412;5.436;2023-02-20T05:53:15;102273.22;;;5.60;97.29
73981;BME280;62348;51.412;5.436;2023-02-20T05:55:40;102274.66;;;5.62;96.99
73981;BME280;62348;51.412;5.436;2023-02-20T05:58:05;102275.31;;;5.64;96.97
73981;BME280;62348;51.412;5.436;2023-02-20T06:00:31;102269.94;;;5.64;96.89
73981;BME280;62348;51.412;5.436;2023-02-20T06:02:56;102267.88;;;5.66;97.07
73981;BME280;62348;51.412;5.436;2023-02-20T06:05:22;102271.22;;;5.68;96.99
73981;BME280;62348;51.412;5.436;2023-02-20T06:07:48;102274.72;;;5.69;96.86
73981;BME280;62348;51.412;5.436;2023-02-20T06:10:15;102272.88;;;5.70;96.93
73981;BME280;62348;51.412;5.436;2023-02-20T06:12:42;102286.94;;;5.72;96.58
73981;BME280;62348;51.412;5.436;2023-02-20T06:15:07;102281.38;;;5.73;96.38
73981;BME280;62348;51.412;5.436;2023-02-20T06:17:33;102286.75;;;5.73;96.63
73981;BME280;62348;51.412;5.436;2023-02-20T06:19:58;102285.72;;;5.74;96.22
73981;BME280;62348;51.412;5.436;2023-02-20T06:22:24;102281.81;;;5.77;96.21
73981;BME280;62348;51.412;5.436;2023-02-20T06:24:49;102279.16;;;5.77;96.21
73981;BME280;62348;51.412;5.436;2023-02-20T06:27:15;102278.09;;;5.78;96.17
73981;BME280;62348;51.412;5.436;2023-02-20T06:29:41;102280.59;;;5.79;96.44
73981;BME280;62348;51.412;5.436;2023-02-20T06:32:06;102279.78;;;5.79;95.86
73981;BME280;62348;51.412;5.436;2023-02-20T06:34:32;102284.75;;;5.82;95.52
73981;BME280;62348;51.412;5.436;2023-02-20T06:36:59;102286.59;;;5.81;95.91
73981;BME280;62348;51.412;5.436;2023-02-20T06:39:27;102277.72;;;5.81;95.74
73981;BME280;62348;51.412;5.436;2023-02-20T06:41:52;102264.94;;;5.83;95.71
73981;BME280;62348;51.412;5.436;2023-02-20T06:44:18;102271.13;;;5.83;95.65
73981;BME280;62348;51.412;5.436;2023-02-20T06:46:43;102273.63;;;5.85;95.41
73981;BME280;62348;51.412;5.436;2023-02-20T06:49:08;102269.28;;;5.84;95.59
73981;BME280;62348;51.412;5.436;2023-02-20T06:51:34;102269.06;;;5.85;95.30
73981;BME280;62348;51.412;5.436;2023-02-20T06:54:02;102269.91;;;5.86;95.01
73981;BME280;62348;51.412;5.436;2023-02-20T06:56:30;102277.75;;;5.87;94.50
73981;BME280;62348;51.412;5.436;2023-02-20T06:58:57;102278.63;;;5.88;94.73
73981;BME280;62348;51.412;5.436;2023-02-20T07:01:25;102274.88;;;5.89;94.87
73981;BME280;62348;51.412;5.436;2023-02-20T07:03:51;102282.94;;;5.89;94.46
73981;BME280;62348;51.412;5.436;2023-02-20T07:06:19;102273.03;;;5.90;94.20
73981;BME280;62348;51.412;5.436;2023-02-20T07:08:45;102274.69;;;5.91;94.28
73981;BME280;62348;51.412;5.436;2023-02-20T07:11:11;102280.06;;;5.91;93.98
73981;BME280;62348;51.412;5.436;2023-02-20T07:13:37;102275.34;;;5.93;93.71
73981;BME280;62348;51.412;5.436;2023-02-20T07:16:03;102282.56;;;5.92;93.97
73981;BME280;62348;51.412;5.436;2023-02-20T07:18:28;102286.91;;;5.93;93.71
73981;BME280;62348;51.412;5.436;2023-02-20T07:20:54;102279.66;;;5.94;93.63
73981;BME280;62348;51.412;5.436;2023-02-20T07:23:20;102287.56;;;5.95;93.41
73981;BME280;62348;51.412;5.436;2023-02-20T07:25:45;102284.03;;;5.95;93.40
73981;BME280;62348;51.412;5.436;2023-02-20T07:28:12;102286.38;;;5.98;93.28
73981;BME280;62348;51.412;5.436;2023-02-20T07:30:38;102287.38;;;5.97;93.40
73981;BME280;62348;51.412;5.436;2023-02-20T07:33:03;102281.81;;;5.98;93.73
73981;BME280;62348;51.412;5.436;2023-02-20T07:35:29;102289.69;;;6.00;93.45
73981;BME280;62348;51.412;5.436;2023-02-20T07:37:54;102286.81;;;6.01;93.56
73981;BME280;62348;51.412;5.436;2023-02-20T07:40:20;102291.31;;;6.01;93.46
73981;BME280;62348;51.412;5.436;2023-02-20T07:42:46;102292.81;;;6.03;93.55
73981;BME280;62348;51.412;5.436;2023-02-20T07:45:11;102280.84;;;6.06;93.23
73981;BME280;62348;51.412;5.436;2023-02-20T07:47:37;102274.47;;;6.07;93.76
73981;BME280;62348;51.412;5.436;2023-02-20T07:50:02;102280.66;;;6.08;93.15
73981;BME280;62348;51.412;5.436;2023-02-20T07:52:28;102278.78;;;6.08;93.41
73981;BME280;62348;51.412;5.436;2023-02-20T07:54:53;102283.16;;;6.09;93.29
73981;BME280;62348;51.412;5.436;2023-02-20T07:57:19;102287.28;;;6.12;93.14
73981;BME280;62348;51.412;5.436;2023-02-20T07:59:44;102282.72;;;6.12;93.45
73981;BME280;62348;51.412;5.436;2023-02-20T08:02:09;102278.00;;;6.14;93.31
73981;BME280;62348;51.412;5.436;2023-02-20T08:04:35;102285.03;;;6.15;93.33
73981;BME280;62348;51.412;5.436;2023-02-20T08:07:00;102282.97;;;6.17;93.39
73981;BME280;62348;51.412;5.436;2023-02-20T08:09:26;102279.25;;;6.18;93.02
73981;BME280;62348;51.412;5.436;2023-02-20T08:11:51;102273.69;;;6.20;93.36
73981;BME280;62348;51.412;5.436;2023-02-20T08:14:17;102276.19;;;6.21;93.49
73981;BME280;62348;51.412;5.436;2023-02-20T08:16:42;102283.00;;;6.24;93.56
73981;BME280;62348;51.412;5.436;2023-02-20T08:19:08;102277.44;;;6.25;92.90
73981;BME280;62348;51.412;5.436;2023-02-20T08:21:33;102282.63;;;6.27;93.05
73981;BME280;62348;51.412;5.436;2023-02-20T08:23:58;102276.25;;;6.28;93.33
73981;BME280;62348;51.412;5.436;2023-02-20T08:26:24;102283.06;;;6.31;93.08
73981;BME280;62348;51.412;5.436;2023-02-20T08:28:50;102275.00;;;6.31;93.06
73981;BME280;62348;51.412;5.436;2023-02-20T08:31:16;102273.78;;;6.33;92.98
73981;BME280;62348;51.412;5.436;2023-02-20T08:33:42;102280.41;;;6.37;92.91
73981;BME280;62348;51.412;5.436;2023-02-20T08:36:08;102270.50;;;6.38;93.14
73981;BME280;62348;51.412;5.436;2023-02-20T08:38:35;102275.69;;;6.39;92.73
73981;BME280;62348;51.412;5.436;2023-02-20T08:41:06;102267.41;;;6.41;92.87
73981;BME280;62348;51.412;5.436;2023-02-20T08:43:36;102269.09;;;6.42;93.07
73981;BME280;62348;51.412;5.436;2023-02-20T08:46:03;102267.84;;;6.44;92.80
73981;BME280;62348;51.412;5.436;2023-02-20T08:48:28;102270.34;;;6.46;93.12
73981;BME280;62348;51.412;5.436;2023-02-20T08:50:54;102275.34;;;6.49;92.95
73981;BME280;62348;51.412;5.436;2023-02-20T08:53:20;102273.28;;;6.51;93.57
73981;BME280;62348;51.412;5.436;2023-02-20T08:55:45;102279.28;;;6.53;93.14
73981;BME280;62348;51.412;5.436;2023-02-20T08:58:11;102263.59;;;6.57;92.67
73981;BME280;62348;51.412;5.436;2023-02-20T09:00:37;102268.13;;;6.56;92.92
73981;BME280;62348;51.412;5.436;2023-02-20T09:03:03;102275.78;;;6.59;92.72
73981;BME280;62348;51.412;5.436;2023-02-20T09:05:33;102275.59;;;6.61;92.90
73981;BME280;62348;51.412;5.436;2023-02-20T09:07:59;102280.59;;;6.64;93.03
73981;BME280;62348;51.412;5.436;2023-02-20T09:10:25;102279.53;;;6.65;92.75
73981;BME280;62348;51.412;5.436;2023-02-20T09:12:50;102281.00;;;6.68;92.32
73981;BME280;62348;51.412;5.436;2023-02-20T09:15:16;102281.00;;;6.68;92.69
73981;BME280;62348;51.412;5.436;2023-02-20T09:17:43;102281.84;;;6.68;92.78
73981;BME280;62348;51.412;5.436;2023-02-20T09:20:10;102288.66;;;6.71;92.59
73981;BME280;62348;51.412;5.436;2023-02-20T09:22:35;102287.66;;;6.72;92.69
73981;BME280;62348;51.412;5.436;2023-02-20T09:25:01;102281.03;;;6.74;92.56
73981;BME280;62348;51.412;5.436;2023-02-20T09:27:26;102274.41;;;6.77;92.21
73981;BME280;62348;51.412;5.436;2023-02-20T09:29:52;102272.59;;;6.77;92.46
73981;BME280;62348;51.412;5.436;2023-02-20T09:32:17;102277.72;;;6.79;92.36
73981;BME280;62348;51.412;5.436;2023-02-20T09:34:42;102259.75;;;6.79;92.23
73981;BME280;62348;51.412;5.436;2023-02-20T09:37:09;102269.47;;;6.80;92.69
73981;BME280;62348;51.412;5.436;2023-02-20T09:39:35;102277.16;;;6.83;92.46
73981;BME280;62348;51.412;5.436;2023-02-20T09:42:42;102274.03;;;6.87;92.72
73981;BME280;62348;51.412;5.436;2023-02-20T09:45:15;102278.59;;;6.86;92.49
73981;BME280;62348;51.412;5.436;2023-02-20T09:50:35;102265.78;;;6.88;92.45
73981;BME280;62348;51.412;5.436;2023-02-20T09:53:25;102266.22;;;6.92;92.63
73981;BME280;62348;51.412;5.436;2023-02-20T09:55:54;102267.25;;;6.91;92.54
73981;BME280;62348;51.412;5.436;2023-02-20T09:58:40;102264.97;;;6.94;92.95
73981;BME280;62348;51.412;5.436;2023-02-20T10:01:11;102255.69;;;6.97;92.88
73981;BME280;62348;51.412;5.436;2023-02-20T10:03:57;102251.75;;;6.99;92.74
73981;BME280;62348;51.412;5.436;2023-02-20T10:06:32;102255.25;;;7.00;92.62
73981;BME280;62348;51.412;5.436;2023-02-20T10:08:58;102245.16;;;7.02;92.26
73981;BME280;62348;51.412;5.436;2023-02-20T10:12:09;102236.88;;;7.03;92.63
73981;BME280;62348;51.412;5.436;2023-02-20T10:15:02;102238.34;;;7.06;92.57
73981;BME280;62348;51.412;5.436;2023-02-20T10:25:53;102258.22;;;7.12;92.48
73981;BME280;62348;51.412;5.436;2023-02-20T10:28:20;102265.03;;;7.14;92.74
73981;BME280;62348;51.412;5.436;2023-02-20T10:36:24;102265.47;;;7.18;92.36
73981;BME280;62348;51.412;5.436;2023-02-20T10:47:06;102256.56;;;7.24;93.09
73981;BME280;62348;51.412;5.436;2023-02-20T10:49:45;102265.06;;;7.28;93.06
73981;BME280;62348;51.412;5.436;2023-02-20T10:52:19;102264.88;;;7.29;92.74
73981;BME280;62348;51.412;5.436;2023-02-20T10:54:54;102265.69;;;7.30;92.71
73981;BME280;62348;51.412;5.436;2023-02-20T10:57:28;102275.63;;;7.29;92.72
73981;BME280;62348;51.412;5.436;2023-02-20T11:00:00;102277.28;;;7.30;92.76
73981;BME280;62348;51.412;5.436;2023-02-20T11:02:33;102269.19;;;7.30;92.76
73981;BME280;62348;51.412;5.436;2023-02-20T11:05:04;102265.28;;;7.33;92.61
73981;BME280;62348;51.412;5.436;2023-02-20T11:07:31;102264.47;;;7.32;92.61
73981;BME280;62348;51.412;5.436;2023-02-20T11:09:58;102259.09;;;7.32;92.94
73981;BME280;62348;51.412;5.436;2023-02-20T11:12:36;102260.72;;;7.33;92.78
73981;BME280;62348;51.412;5.436;2023-02-20T11:15:07;102264.25;;;7.34;92.67
73981;BME280;62348;51.412;5.436;2023-02-20T11:17:34;102262.81;;;7.31;92.71
73981;BME280;62348;51.412;5.436;2023-02-20T11:20:03;102266.50;;;7.30;92.85
73981;BME280;62348;51.412;5.436;2023-02-20T11:22:47;102264.25;;;7.34;93.31
73981;BME280;62348;51.412;5.436;2023-02-20T11:25:26;102261.56;;;7.34;93.25
73981;BME280;62348;51.412;5.436;2023-02-20T11:27:54;102261.56;;;7.34;92.97
73981;BME280;62348;51.412;5.436;2023-02-20T11:30:28;102261.56;;;7.34;93.23
73981;BME280;62348;51.412;5.436;2023-02-20T11:33:01;102257.84;;;7.35;93.46
73981;BME280;62348;51.412;5.436;2023-02-20T11:35:31;102252.47;;;7.35;93.21
73981;BME280;62348;51.412;5.436;2023-02-20T11:40:38;102226.38;;;7.35;93.26
73981;BME280;62348;51.412;5.436;2023-02-20T11:43:23;102232.56;;;7.36;93.59
73981;BME280;62348;51.412;5.436;2023-02-20T11:45:49;102237.97;;;7.36;93.36
73981;BME280;62348;51.412;5.436;2023-02-20T11:48:19;102229.06;;;7.35;93.54
73981;BME280;62348;51.412;5.436;2023-02-20T11:50:49;102231.75;;;7.35;93.61
73981;BME280;62348;51.412;5.436;2023-02-20T11:53:26;102244.19;;;7.36;93.74
73981;BME280;62348;51.412;5.436;2023-02-20T11:56:14;102245.84;;;7.37;93.65
73981;BME280;62348;51.412;5.436;2023-02-20T11:58:40;102231.56;;;7.37;93.82
73981;BME280;62348;51.412;5.436;2023-02-20T12:01:11;102230.50;;;7.38;93.87
73981;BME280;62348;51.412;5.436;2023-02-20T12:03:56;102210.66;;;7.39;93.87
73981;BME280;62348;51.412;5.436;2023-02-20T12:06:41;102216.66;;;7.41;93.90
73981;BME280;62348;51.412;5.436;2023-02-20T12:09:13;102203.19;;;7.41;94.15
73981;BME280;62348;51.412;5.436;2023-02-20T12:11:40;102196.78;;;7.42;94.16
73981;BME280;62348;51.412;5.436;2023-02-20T12:14:12;102192.03;;;7.44;94.34
73981;BME280;62348;51.412;5.436;2023-02-20T12:16:52;102184.56;;;7.46;93.84
73981;BME280;62348;51.412;5.436;2023-02-20T12:19:27;102186.00;;;7.49;94.17
73981;BME280;62348;51.412;5.436;2023-02-20T12:22:40;102179.41;;;7.51;93.87
73981;BME280;62348;51.412;5.436;2023-02-20T12:33:47;102174.81;;;7.58;93.87
73981;BME280;62348;51.412;5.436;2023-02-20T12:37:00;102166.34;;;7.61;94.06
73981;BME280;62348;51.412;5.436;2023-02-20T12:47:26;102183.31;;;7.69;93.76
73981;BME280;62348;51.412;5.436;2023-02-20T13:05:58;102136.91;;;7.73;93.69
73981;BME280;62348;51.412;5.436;2023-02-20T13:08:28;102146.47;;;7.76;93.41
73981;BME280;62348;51.412;5.436;2023-02-20T13:11:01;102149.16;;;7.76;93.51
73981;BME280;62348;51.412;5.436;2023-02-20T13:13:41;102134.44;;;7.78;93.52
73981;BME280;62348;51.412;5.436;2023-02-20T13:16:18;102123.88;;;7.77;93.61
73981;BME280;62348;51.412;5.436;2023-02-20T13:18:49;102119.91;;;7.79;93.66
73981;BME280;62348;51.412;5.436;2023-02-20T13:21:17;102114.13;;;7.82;93.72
73981;BME280;62348;51.412;5.436;2023-02-20T13:23:45;102108.53;;;7.84;93.56
73981;BME280;62348;51.412;5.436;2023-02-20T13:29:15;102089.22;;;7.87;93.46
73981;BME280;62348;51.412;5.436;2023-02-20T13:31:47;102095.47;;;7.88;93.31
73981;BME280;62348;51.412;5.436;2023-02-20T13:54:57;102116.56;;;7.97;92.81
73981;BME280;62348;51.412;5.436;2023-02-20T13:57:23;102109.50;;;7.96;92.64
73981;BME280;62348;51.412;5.436;2023-02-20T13:59:54;102096.91;;;7.97;92.63
73981;BME280;62348;51.412;5.436;2023-02-20T14:02:22;102095.03;;;7.97;92.61
73981;BME280;62348;51.412;5.436;2023-02-20T14:05:02;102079.88;;;7.96;92.35
73981;BME280;62348;51.412;5.436;2023-02-20T14:10:06;102061.28;;;7.95;92.12
73981;BME280;62348;51.412;5.436;2023-02-20T14:12:37;102072.03;;;7.95;92.35
73981;BME280;62348;51.412;5.436;2023-02-20T14:15:04;102075.75;;;7.94;91.74
73981;BME280;62348;51.412;5.436;2023-02-20T14:17:31;102078.44;;;7.94;91.75
73981;BME280;62348;51.412;5.436;2023-02-20T14:19:59;102073.28;;;7.92;92.26
73981;BME280;62348;51.412;5.436;2023-02-20T14:22:32;102083.03;;;7.93;92.38
73981;BME280;62348;51.412;5.436;2023-02-20T14:25:06;102076.78;;;7.93;91.91
73981;BME280;62348;51.412;5.436;2023-02-20T14:27:39;102097.31;;;7.94;92.17
73981;BME280;62348;51.412;5.436;2023-02-20T14:30:14;102074.94;;;7.93;92.00
73981;BME280;62348;51.412;5.436;2023-02-20T14:32:51;102072.25;;;7.93;92.43
73981;BME280;62348;51.412;5.436;2023-02-20T14:38:32;102064.16;;;7.93;92.01
73981;BME280;62348;51.412;5.436;2023-02-20T14:41:16;102074.09;;;7.93;92.36
73981;BME280;62348;51.412;5.436;2023-02-20T14:43:42;102066.88;;;7.93;91.89
73981;BME280;62348;51.412;5.436;2023-02-20T14:46:20;102053.41;;;7.93;92.22
73981;BME280;62348;51.412;5.436;2023-02-20T14:48:47;102044.88;;;7.96;91.87
73981;BME280;62348;51.412;5.436;2023-02-20T14:51:13;102045.72;;;7.97;92.00
73981;BME280;62348;51.412;5.436;2023-02-20T14:53:41;102057.09;;;7.99;92.09
73981;BME280;62348;51.412;5.436;2023-02-20T14:56:17;102055.84;;;8.01;92.00
73981;BME280;62348;51.412;5.436;2023-02-20T14:58:44;102054.16;;;8.00;92.00
73981;BME280;62348;51.412;5.436;2023-02-20T15:01:28;102061.84;;;8.04;92.10
73981;BME280;62348;51.412;5.436;2023-02-20T15:04:05;102046.72;;;8.02;91.78
73981;BME280;62348;51.412;5.436;2023-02-20T15:06:36;102050.44;;;8.01;91.96
73981;BME280;62348;51.412;5.436;2023-02-20T15:09:04;102046.94;;;8.01;91.89
73981;BME280;62348;51.412;5.436;2023-02-20T15:11:30;102046.72;;;8.02;91.58
73981;BME280;62348;51.412;5.436;2023-02-20T15:13:56;102051.28;;;8.02;91.69